sensor_id;sensor_type;location;lat;lon;timestamp;temperature;humidity
23291;DHT22;11814;44.686;10.842;2023-07-02T00:00:05;23.10;99.90
23291;DHT22;11814;44.686;10.842;2023-07-02T00:02:32;23.20;99.90
23291;DHT22;11814;44.686;10.842;2023-07-02T00:04:57;23.20;99.90
23291;DHT22;11814;44.686;10.842;2023-07-02T00:07:23;23.20;99.90
23291;DHT22;11814;44.686;10.842;2023-07-02T00:09:51;23.20;99.90
23291;DHT22;11814;44.686;10.842;2023-07-02T00:12:17;23.20;99.90
23291;DHT22;11814;44.686;10.842;2023-07-02T00:14:42;23.20;99.90
23291;DHT22;11814;44.686;10.842;2023-07-02T00:17:08;23.20;99.90
23291;DHT22;11814;44.686;10.842;2023-07-02T00:19:38;23.10;99.90
23291;DHT22;11814;44.686;10.842;2023-07-02T00:22:07;23.10;99.90
23291;DHT22;11814;44.686;10.842;2023-07-02T00:24:33;23.10;99.90
23291;DHT22;11814;44.686;10.842;2023-07-02T00:26:59;23.10;99.90
23291;DHT22;11814;44.686;10.842;2023-07-02T00:29:24;23.00;99.90
23291;DHT22;11814;44.686;10.842;2023-07-02T00:31:50;23.00;99.90
23291;DHT22;11814;44.686;10.842;2023-07-02T00:34:15;23.00;99.90
23291;DHT22;11814;44.686;10.842;2023-07-02T00:36:41;22.90;99.90
23291;DHT22;11814;44.686;10.842;2023-07-02T00:39:07;22.90;99.90
23291;DHT22;11814;44.686;10.842;2023-07-02T00:41:32;22.90;99.90
23291;DHT22;11814;44.686;10.842;2023-07-02T00:43:58;22.90;99.90
23291;DHT22;11814;44.686;10.842;2023-07-02T00:46:24;22.80;99.90
23291;DHT22;11814;44.686;10.842;2023-07-02T00:48:52;22.80;99.90
23291;DHT22;11814;44.686;10.842;2023-07-02T00:51:20;22.80;99.90
23291;DHT22;11814;44.686;10.842;2023-07-02T00:53:48;22.80;99.90
23291;DHT22;11814;44.686;10.842;2023-07-02T00:56:15;22.80;99.90
23291;DHT22;11814;44.686;10.842;2023-07-02T00:58:46;22.90;99.90
23291;DHT22;11814;44.686;10.842;2023-07-02T01:01:17;22.80;99.90
23291;DHT22;11814;44.686;10.842;2023-07-02T01:03:56;22.80;99.90
23291;DHT22;11814;44.686;10.842;2023-07-02T01:06:30;22.80;99.90
23291;DHT22;11814;44.686;10.842;2023-07-02T01:08:57;22.80;99.90
23291;DHT22;11814;44.686;10.842;2023-07-02T01:11:56;22.70;99.90
23291;DHT22;11814;44.686;10.842;2023-07-02T01:14:32;22.70;99.90
23291;DHT22;11814;44.686;10.842;2023-07-02T01:17:00;22.60;99.90
23291;DHT22;11814;44.686;10.842;2023-07-02T01:19:57;22.60;99.90
23291;DHT22;11814;44.686;10.842;2023-07-02T01:22:26;22.50;99.90
23291;DHT22;11814;44.686;10.842;2023-07-02T01:24:53;22.50;99.90
23291;DHT22;11814;44.686;10.842;2023-07-02T01:27:19;22.40;99.90
23291;DHT22;11814;44.686;10.842;2023-07-02T01:29:46;22.40;99.90
23291;DHT22;11814;44.686;10.842;2023-07-02T01:32:13;22.40;99.90
23291;DHT22;11814;44.686;10.842;2023-07-02T01:34:39;22.40;99.90
23291;DHT22;11814;44.686;10.842;2023-07-02T01:37:05;22.40;99.90
23291;DHT22;11814;44.686;10.842;2023-07-02T01:39:31;22.30;99.90
23291;DHT22;11814;44.686;10.842;2023-07-02T01:42:11;22.30;99.90
23291;DHT22;11814;44.686;10.842;2023-07-02T01:44:38;22.30;99.90
23291;DHT22;11814;44.686;10.842;2023-07-02T01:47:04;22.20;99.90
23291;DHT22;11814;44.686;10.842;2023-07-02T01:49:30;22.20;99.90
23291;DHT22;11814;44.686;10.842;2023-07-02T01:51:56;22.10;99.90
23291;DHT22;11814;44.686;10.842;2023-07-02T01:54:24;22.10;99.90
23291;DHT22;11814;44.686;10.842;2023-07-02T01:56:50;22.00;99.90
23291;DHT22;11814;44.686;10.842;2023-07-02T01:59:16;22.00;99.90
23291;DHT22;11814;44.686;10.842;2023-07-02T02:01:44;22.00;99.90
23291;DHT22;11814;44.686;10.842;2023-07-02T02:04:10;22.00;99.90
23291;DHT22;11814;44.686;10.842;2023-07-02T02:06:37;21.90;99.90
23291;DHT22;11814;44.686;10.842;2023-07-02T02:09:03;21.90;99.90
23291;DHT22;11814;44.686;10.842;2023-07-02T02:11:30;21.90;99.90
23291;DHT22;11814;44.686;10.842;2023-07-02T02:13:56;21.90;99.90
23291;DHT22;11814;44.686;10.842;2023-07-02T02:16:22;21.80;99.90
23291;DHT22;11814;44.686;10.842;2023-07-02T02:18:48;21.90;99.90
23291;DHT22;11814;44.686;10.842;2023-07-02T02:21:17;21.90;99.90
23291;DHT22;11814;44.686;10.842;2023-07-02T02:23:43;21.90;99.90
23291;DHT22;11814;44.686;10.842;2023-07-02T02:26:09;21.90;99.90
23291;DHT22;11814;44.686;10.842;2023-07-02T02:28:34;21.80;99.90
23291;DHT22;11814;44.686;10.842;2023-07-02T02:31:00;21.70;99.90
23291;DHT22;11814;44.686;10.842;2023-07-02T02:33:26;21.70;99.90
23291;DHT22;11814;44.686;10.842;2023-07-02T02:35:52;21.70;99.90
23291;DHT22;11814;44.686;10.842;2023-07-02T02:38:17;21.80;99.90
23291;DHT22;11814;44.686;10.842;2023-07-02T02:40:43;21.80;99.90
23291;DHT22;11814;44.686;10.842;2023-07-02T02:43:09;21.80;99.90
23291;DHT22;11814;44.686;10.842;2023-07-02T02:45:35;21.80;99.90
23291;DHT22;11814;44.686;10.842;2023-07-02T02:48:00;21.80;99.90
23291;DHT22;11814;44.686;10.842;2023-07-02T02:50:26;21.80;99.90
23291;DHT22;11814;44.686;10.842;2023-07-02T02:52:52;21.80;99.90
23291;DHT22;11814;44.686;10.842;2023-07-02T02:55:18;21.80;99.90
23291;DHT22;11814;44.686;10.842;2023-07-02T02:57:44;21.80;99.90
23291;DHT22;11814;44.686;10.842;2023-07-02T03:00:10;21.80;99.90
23291;DHT22;11814;44.686;10.842;2023-07-02T03:02:37;21.80;99.90
23291;DHT22;11814;44.686;10.842;2023-07-02T03:05:03;21.80;99.90
23291;DHT22;11814;44.686;10.842;2023-07-02T03:07:29;21.80;99.90
23291;DHT22;11814;44.686;10.842;2023-07-02T03:09:55;21.80;99.90
23291;DHT22;11814;44.686;10.842;2023-07-02T03:12:22;21.80;99.90
23291;DHT22;11814;44.686;10.842;2023-07-02T03:14:47;21.80;99.90
23291;DHT22;11814;44.686;10.842;2023-07-02T03:17:18;21.80;99.90
23291;DHT22;11814;44.686;10.842;2023-07-02T03:19:44;21.80;99.90
23291;DHT22;11814;44.686;10.842;2023-07-02T03:22:10;21.70;99.90
23291;DHT22;11814;44.686;10.842;2023-07-02T03:24:36;21.70;99.90
23291;DHT22;11814;44.686;10.842;2023-07-02T03:27:01;21.70;99.90
23291;DHT22;11814;44.686;10.842;2023-07-02T03:29:27;21.70;99.90
23291;DHT22;11814;44.686;10.842;2023-07-02T03:31:53;21.70;99.90
23291;DHT22;11814;44.686;10.842;2023-07-02T03:34:18;21.70;99.90
23291;DHT22;11814;44.686;10.842;2023-07-02T03:36:44;21.60;99.90
23291;DHT22;11814;44.686;10.842;2023-07-02T03:39:10;21.60;99.90
23291;DHT22;11814;44.686;10.842;2023-07-02T03:41:35;21.60;99.90
23291;DHT22;11814;44.686;10.842;2023-07-02T03:44:01;21.60;99.90
23291;DHT22;11814;44.686;10.842;2023-07-02T03:46:27;21.50;99.90
23291;DHT22;11814;44.686;10.842;2023-07-02T03:48:52;21.50;99.90
23291;DHT22;11814;44.686;10.842;2023-07-02T03:51:18;21.50;99.90
23291;DHT22;11814;44.686;10.842;2023-07-02T03:53:44;21.50;99.90
23291;DHT22;11814;44.686;10.842;2023-07-02T03:56:09;21.50;99.90
23291;DHT22;11814;44.686;10.842;2023-07-02T03:58:35;21.50;99.90
23291;DHT22;11814;44.686;10.842;2023-07-02T04:01:01;21.50;99.90
23291;DHT22;11814;44.686;10.842;2023-07-02T04:03:27;21.60;99.90
23291;DHT22;11814;44.686;10.842;2023-07-02T04:05:52;21.50;99.90
23291;DHT22;11814;44.686;10.842;2023-07-02T04:08:18;21.50;99.90
23291;DHT22;11814;44.686;10.842;2023-07-02T04:10:46;21.60;99.90
23291;DHT22;11814;44.686;10.842;2023-07-02T04:13:12;21.60;99.90
23291;DHT22;11814;44.686;10.842;2023-07-02T04:15:37;21.60;99.90
23291;DHT22;11814;44.686;10.842;2023-07-02T04:18:03;21.60;99.90
23291;DHT22;11814;44.686;10.842;2023-07-02T04:20:29;21.60;99.90
23291;DHT22;11814;44.686;10.842;2023-07-02T04:22:54;21.70;99.90
23291;DHT22;11814;44.686;10.842;2023-07-02T04:25:20;21.70;99.90
23291;DHT22;11814;44.686;10.842;2023-07-02T04:27:46;21.60;99.90
23291;DHT22;11814;44.686;10.842;2023-07-02T04:30:12;21.60;99.90
23291;DHT22;11814;44.686;10.842;2023-07-02T04:32:40;21.60;99.90
23291;DHT22;11814;44.686;10.842;2023-07-02T04:35:06;21.60;99.90
23291;DHT22;11814;44.686;10.842;2023-07-02T04:37:32;21.60;99.90
23291;DHT22;11814;44.686;10.842;2023-07-02T04:39:58;21.60;99.90
23291;DHT22;11814;44.686;10.842;2023-07-02T04:42:23;21.70;99.90
23291;DHT22;11814;44.686;10.842;2023-07-02T04:44:53;21.70;99.90
23291;DHT22;11814;44.686;10.842;2023-07-02T04:47:20;21.70;99.90
23291;DHT22;11814;44.686;10.842;2023-07-02T04:49:46;21.80;99.90
23291;DHT22;11814;44.686;10.842;2023-07-02T04:52:11;21.80;99.90
23291;DHT22;11814;44.686;10.842;2023-07-02T04:54:37;21.80;99.90
23291;DHT22;11814;44.686;10.842;2023-07-02T04:57:03;21.80;99.90
23291;DHT22;11814;44.686;10.842;2023-07-02T04:59:29;21.90;99.90
23291;DHT22;11814;44.686;10.842;2023-07-02T05:01:55;21.90;99.90
23291;DHT22;11814;44.686;10.842;2023-07-02T05:04:20;22.00;99.90
23291;DHT22;11814;44.686;10.842;2023-07-02T05:06:46;21.90;99.90
23291;DHT22;11814;44.686;10.842;2023-07-02T05:09:11;22.00;99.90
23291;DHT22;11814;44.686;10.842;2023-07-02T05:11:37;22.00;99.90
23291;DHT22;11814;44.686;10.842;2023-07-02T05:14:03;22.10;99.90
23291;DHT22;11814;44.686;10.842;2023-07-02T05:16:28;22.20;99.90
23291;DHT22;11814;44.686;10.842;2023-07-02T05:18:54;22.20;99.90
23291;DHT22;11814;44.686;10.842;2023-07-02T05:21:20;22.30;99.90
23291;DHT22;11814;44.686;10.842;2023-07-02T05:23:46;22.40;99.90
23291;DHT22;11814;44.686;10.842;2023-07-02T05:26:12;22.40;99.90
23291;DHT22;11814;44.686;10.842;2023-07-02T05:28:38;22.50;99.90
23291;DHT22;11814;44.686;10.842;2023-07-02T05:31:03;22.60;99.90
23291;DHT22;11814;44.686;10.842;2023-07-02T05:33:29;22.70;99.90
23291;DHT22;11814;44.686;10.842;2023-07-02T05:35:56;22.90;99.90
23291;DHT22;11814;44.686;10.842;2023-07-02T05:38:22;23.00;99.90
23291;DHT22;11814;44.686;10.842;2023-07-02T05:40:47;23.10;99.90
23291;DHT22;11814;44.686;10.842;2023-07-02T05:43:13;23.30;99.90
23291;DHT22;11814;44.686;10.842;2023-07-02T05:45:39;23.40;99.90
23291;DHT22;11814;44.686;10.842;2023-07-02T05:48:05;23.60;99.90
23291;DHT22;11814;44.686;10.842;2023-07-02T05:50:30;23.70;99.90
23291;DHT22;11814;44.686;10.842;2023-07-02T05:52:56;23.80;99.90
23291;DHT22;11814;44.686;10.842;2023-07-02T05:55:21;23.90;99.90
23291;DHT22;11814;44.686;10.842;2023-07-02T05:57:47;24.00;99.90
23291;DHT22;11814;44.686;10.842;2023-07-02T06:00:13;24.00;99.90
23291;DHT22;11814;44.686;10.842;2023-07-02T06:02:39;24.20;99.90
23291;DHT22;11814;44.686;10.842;2023-07-02T06:05:05;24.40;99.90
23291;DHT22;11814;44.686;10.842;2023-07-02T06:07:31;24.40;99.90
23291;DHT22;11814;44.686;10.842;2023-07-02T06:09:56;24.70;99.90
23291;DHT22;11814;44.686;10.842;2023-07-02T06:12:22;24.90;99.90
23291;DHT22;11814;44.686;10.842;2023-07-02T06:14:48;25.20;99.90
23291;DHT22;11814;44.686;10.842;2023-07-02T06:17:14;25.50;99.90
23291;DHT22;11814;44.686;10.842;2023-07-02T06:19:40;25.70;99.90
23291;DHT22;11814;44.686;10.842;2023-07-02T06:22:06;26.00;99.90
23291;DHT22;11814;44.686;10.842;2023-07-02T06:24:32;26.20;99.90
23291;DHT22;11814;44.686;10.842;2023-07-02T06:26:58;26.60;99.90
23291;DHT22;11814;44.686;10.842;2023-07-02T06:29:23;27.00;99.90
23291;DHT22;11814;44.686;10.842;2023-07-02T06:31:50;27.30;98.60
23291;DHT22;11814;44.686;10.842;2023-07-02T06:34:16;27.80;97.10
23291;DHT22;11814;44.686;10.842;2023-07-02T06:36:42;28.30;94.80
23291;DHT22;11814;44.686;10.842;2023-07-02T06:39:08;28.60;92.20
23291;DHT22;11814;44.686;10.842;2023-07-02T06:41:36;29.00;90.70
23291;DHT22;11814;44.686;10.842;2023-07-02T06:44:02;29.30;89.10
23291;DHT22;11814;44.686;10.842;2023-07-02T06:46:28;29.60;86.70
23291;DHT22;11814;44.686;10.842;2023-07-02T06:48:55;29.80;84.70
23291;DHT22;11814;44.686;10.842;2023-07-02T06:51:20;29.80;83.40
23291;DHT22;11814;44.686;10.842;2023-07-02T06:53:47;29.70;83.30
23291;DHT22;11814;44.686;10.842;2023-07-02T06:56:12;29.70;83.20
23291;DHT22;11814;44.686;10.842;2023-07-02T06:58:42;30.00;82.00
23291;DHT22;11814;44.686;10.842;2023-07-02T07:01:08;30.20;80.10
23291;DHT22;11814;44.686;10.842;2023-07-02T07:03:37;30.10;79.10
23291;DHT22;11814;44.686;10.842;2023-07-02T07:06:02;29.80;79.50
23291;DHT22;11814;44.686;10.842;2023-07-02T07:08:29;29.50;80.30
23291;DHT22;11814;44.686;10.842;2023-07-02T07:10:54;29.30;80.70
23291;DHT22;11814;44.686;10.842;2023-07-02T07:13:20;29.20;81.00
23291;DHT22;11814;44.686;10.842;2023-07-02T07:15:46;29.20;81.80
23291;DHT22;11814;44.686;10.842;2023-07-02T07:18:12;29.20;82.60
23291;DHT22;11814;44.686;10.842;2023-07-02T07:20:41;29.50;81.90
23291;DHT22;11814;44.686;10.842;2023-07-02T07:23:07;29.60;81.40
23291;DHT22;11814;44.686;10.842;2023-07-02T07:25:33;29.80;80.70
23291;DHT22;11814;44.686;10.842;2023-07-02T07:28:02;30.00;79.70
23291;DHT22;11814;44.686;10.842;2023-07-02T07:30:27;30.10;78.70
23291;DHT22;11814;44.686;10.842;2023-07-02T07:32:53;30.10;78.70
23291;DHT22;11814;44.686;10.842;2023-07-02T07:35:20;29.90;78.20
23291;DHT22;11814;44.686;10.842;2023-07-02T07:37:47;29.70;78.60
23291;DHT22;11814;44.686;10.842;2023-07-02T07:40:13;29.60;79.50
23291;DHT22;11814;44.686;10.842;2023-07-02T07:42:38;29.50;79.80
23291;DHT22;11814;44.686;10.842;2023-07-02T07:45:04;29.30;79.80
23291;DHT22;11814;44.686;10.842;2023-07-02T07:47:30;29.20;79.90
23291;DHT22;11814;44.686;10.842;2023-07-02T07:49:56;29.00;80.40
23291;DHT22;11814;44.686;10.842;2023-07-02T07:52:21;28.90;80.90
23291;DHT22;11814;44.686;10.842;2023-07-02T07:54:47;28.80;81.40
23291;DHT22;11814;44.686;10.842;2023-07-02T07:57:13;28.70;81.60
23291;DHT22;11814;44.686;10.842;2023-07-02T07:59:39;28.70;81.60
23291;DHT22;11814;44.686;10.842;2023-07-02T08:02:06;28.70;81.70
23291;DHT22;11814;44.686;10.842;2023-07-02T08:04:32;28.60;81.90
23291;DHT22;11814;44.686;10.842;2023-07-02T08:06:57;28.60;82.20
23291;DHT22;11814;44.686;10.842;2023-07-02T08:09:24;28.40;82.20
23291;DHT22;11814;44.686;10.842;2023-07-02T08:11:50;28.40;82.90
23291;DHT22;11814;44.686;10.842;2023-07-02T08:14:16;28.30;83.00
23291;DHT22;11814;44.686;10.842;2023-07-02T08:16:43;28.30;83.10
23291;DHT22;11814;44.686;10.842;2023-07-02T08:19:09;28.40;83.10
23291;DHT22;11814;44.686;10.842;2023-07-02T08:21:35;28.40;83.40
23291;DHT22;11814;44.686;10.842;2023-07-02T08:24:01;28.40;83.60
23291;DHT22;11814;44.686;10.842;2023-07-02T08:26:26;28.40;83.90
23291;DHT22;11814;44.686;10.842;2023-07-02T08:28:52;28.50;84.10
23291;DHT22;11814;44.686;10.842;2023-07-02T08:31:18;28.60;84.20
23291;DHT22;11814;44.686;10.842;2023-07-02T08:33:43;28.60;84.20
23291;DHT22;11814;44.686;10.842;2023-07-02T08:36:09;28.60;84.40
23291;DHT22;11814;44.686;10.842;2023-07-02T08:38:34;28.60;84.30
23291;DHT22;11814;44.686;10.842;2023-07-02T08:41:00;28.60;83.90
23291;DHT22;11814;44.686;10.842;2023-07-02T08:43:26;28.60;83.50
23291;DHT22;11814;44.686;10.842;2023-07-02T08:45:55;28.60;83.30
23291;DHT22;11814;44.686;10.842;2023-07-02T08:48:21;28.60;83.20
23291;DHT22;11814;44.686;10.842;2023-07-02T08:50:49;28.60;84.50
23291;DHT22;11814;44.686;10.842;2023-07-02T08:53:16;28.60;84.00
23291;DHT22;11814;44.686;10.842;2023-07-02T08:55:41;28.70;84.10
23291;DHT22;11814;44.686;10.842;2023-07-02T08:58:07;28.70;83.80
23291;DHT22;11814;44.686;10.842;2023-07-02T09:00:33;28.80;83.60
23291;DHT22;11814;44.686;10.842;2023-07-02T09:03:14;28.90;83.40
23291;DHT22;11814;44.686;10.842;2023-07-02T09:05:50;28.90;83.50
23291;DHT22;11814;44.686;10.842;2023-07-02T09:08:24;29.00;83.30
23291;DHT22;11814;44.686;10.842;2023-07-02T09:10:50;29.00;82.80
23291;DHT22;11814;44.686;10.842;2023-07-02T09:13:16;29.10;82.60
23291;DHT22;11814;44.686;10.842;2023-07-02T09:15:42;29.10;82.20
23291;DHT22;11814;44.686;10.842;2023-07-02T09:18:21;29.20;81.70
23291;DHT22;11814;44.686;10.842;2023-07-02T09:20:54;29.10;81.40
23291;DHT22;11814;44.686;10.842;2023-07-02T09:23:20;29.20;81.10
23291;DHT22;11814;44.686;10.842;2023-07-02T09:25:46;29.10;80.70
23291;DHT22;11814;44.686;10.842;2023-07-02T09:30:56;29.10;80.60
23291;DHT22;11814;44.686;10.842;2023-07-02T09:33:27;29.20;80.40
23291;DHT22;11814;44.686;10.842;2023-07-02T09:35:53;29.20;80.10
23291;DHT22;11814;44.686;10.842;2023-07-02T09:38:22;29.30;79.70
23291;DHT22;11814;44.686;10.842;2023-07-02T09:40:50;29.30;79.90
23291;DHT22;11814;44.686;10.842;2023-07-02T09:43:17;29.40;79.60
23291;DHT22;11814;44.686;10.842;2023-07-02T09:45:44;29.50;79.60
23291;DHT22;11814;44.686;10.842;2023-07-02T09:48:13;29.60;78.90
23291;DHT22;11814;44.686;10.842;2023-07-02T09:50:42;29.60;78.20
23291;DHT22;11814;44.686;10.842;2023-07-02T09:53:09;29.60;77.90
23291;DHT22;11814;44.686;10.842;2023-07-02T09:55:34;29.70;77.80
23291;DHT22;11814;44.686;10.842;2023-07-02T09:58:00;29.70;77.90
23291;DHT22;11814;44.686;10.842;2023-07-02T10:00:26;29.80;77.60
23291;DHT22;11814;44.686;10.842;2023-07-02T10:02:52;29.80;77.30
23291;DHT22;11814;44.686;10.842;2023-07-02T10:05:31;29.80;77.20
23291;DHT22;11814;44.686;10.842;2023-07-02T10:07:57;29.90;76.60
23291;DHT22;11814;44.686;10.842;2023-07-02T10:10:30;30.00;76.70
23291;DHT22;11814;44.686;10.842;2023-07-02T10:12:57;30.00;77.00
23291;DHT22;11814;44.686;10.842;2023-07-02T10:15:29;30.10;76.80
23291;DHT22;11814;44.686;10.842;2023-07-02T10:18:01;30.10;76.20
23291;DHT22;11814;44.686;10.842;2023-07-02T10:20:38;30.10;76.60
23291;DHT22;11814;44.686;10.842;2023-07-02T10:23:04;30.10;76.10
23291;DHT22;11814;44.686;10.842;2023-07-02T10:25:32;30.20;76.10
23291;DHT22;11814;44.686;10.842;2023-07-02T10:28:00;30.20;75.30
23291;DHT22;11814;44.686;10.842;2023-07-02T10:30:35;30.10;75.10
23291;DHT22;11814;44.686;10.842;2023-07-02T10:33:11;30.10;75.50
23291;DHT22;11814;44.686;10.842;2023-07-02T10:35:38;29.90;75.30
23291;DHT22;11814;44.686;10.842;2023-07-02T10:38:05;29.80;75.60
23291;DHT22;11814;44.686;10.842;2023-07-02T10:40:32;29.70;75.90
23291;DHT22;11814;44.686;10.842;2023-07-02T10:42:59;29.70;75.90
23291;DHT22;11814;44.686;10.842;2023-07-02T10:45:32;29.70;75.90
23291;DHT22;11814;44.686;10.842;2023-07-02T10:47:58;29.80;75.70
23291;DHT22;11814;44.686;10.842;2023-07-02T10:50:24;30.00;75.40
23291;DHT22;11814;44.686;10.842;2023-07-02T10:52:51;30.10;75.00
23291;DHT22;11814;44.686;10.842;2023-07-02T10:55:20;30.10;74.20
23291;DHT22;11814;44.686;10.842;2023-07-02T10:57:47;30.20;74.10
23291;DHT22;11814;44.686;10.842;2023-07-02T11:00:15;30.30;74.10
23291;DHT22;11814;44.686;10.842;2023-07-02T11:02:40;30.40;73.60
23291;DHT22;11814;44.686;10.842;2023-07-02T11:05:07;30.40;73.30
23291;DHT22;11814;44.686;10.842;2023-07-02T11:07:38;30.40;73.10
23291;DHT22;11814;44.686;10.842;2023-07-02T11:10:05;30.20;72.80
23291;DHT22;11814;44.686;10.842;2023-07-02T11:12:31;30.20;72.90
23291;DHT22;11814;44.686;10.842;2023-07-02T11:15:13;30.20;72.80
23291;DHT22;11814;44.686;10.842;2023-07-02T11:17:39;30.30;72.60
23291;DHT22;11814;44.686;10.842;2023-07-02T11:20:09;30.40;72.60
23291;DHT22;11814;44.686;10.842;2023-07-02T11:22:36;30.50;72.30
23291;DHT22;11814;44.686;10.842;2023-07-02T11:25:09;30.70;72.30
23291;DHT22;11814;44.686;10.842;2023-07-02T11:27:35;30.80;71.60
23291;DHT22;11814;44.686;10.842;2023-07-02T11:30:01;30.70;71.30
23291;DHT22;11814;44.686;10.842;2023-07-02T11:32:26;30.80;71.30
23291;DHT22;11814;44.686;10.842;2023-07-02T11:34:56;30.80;71.50
23291;DHT22;11814;44.686;10.842;2023-07-02T11:37:22;30.90;70.60
23291;DHT22;11814;44.686;10.842;2023-07-02T11:39:48;30.90;70.50
23291;DHT22;11814;44.686;10.842;2023-07-02T11:42:14;30.90;70.70
23291;DHT22;11814;44.686;10.842;2023-07-02T11:44:40;31.00;70.40
23291;DHT22;11814;44.686;10.842;2023-07-02T11:47:06;31.10;70.00
23291;DHT22;11814;44.686;10.842;2023-07-02T11:49:32;31.20;70.50
23291;DHT22;11814;44.686;10.842;2023-07-02T11:51:57;31.20;69.50
23291;DHT22;11814;44.686;10.842;2023-07-02T11:54:23;31.20;69.60
23291;DHT22;11814;44.686;10.842;2023-07-02T11:56:49;31.20;69.80
23291;DHT22;11814;44.686;10.842;2023-07-02T11:59:14;31.20;69.20
23291;DHT22;11814;44.686;10.842;2023-07-02T12:01:40;31.10;69.00
23291;DHT22;11814;44.686;10.842;2023-07-02T12:04:06;31.20;68.60
23291;DHT22;11814;44.686;10.842;2023-07-02T12:06:33;31.10;67.90
23291;DHT22;11814;44.686;10.842;2023-07-02T12:08:59;31.00;68.00
23291;DHT22;11814;44.686;10.842;2023-07-02T12:11:25;31.10;68.20
23291;DHT22;11814;44.686;10.842;2023-07-02T12:13:50;31.10;67.90
23291;DHT22;11814;44.686;10.842;2023-07-02T12:16:16;31.20;67.50
23291;DHT22;11814;44.686;10.842;2023-07-02T12:18:42;31.10;67.10
23291;DHT22;11814;44.686;10.842;2023-07-02T12:21:07;31.10;67.20
23291;DHT22;11814;44.686;10.842;2023-07-02T12:23:33;31.00;67.30
23291;DHT22;11814;44.686;10.842;2023-07-02T12:25:58;31.00;67.70
23291;DHT22;11814;44.686;10.842;2023-07-02T12:28:24;31.10;67.80
23291;DHT22;11814;44.686;10.842;2023-07-02T12:30:50;31.10;67.50
23291;DHT22;11814;44.686;10.842;2023-07-02T12:33:15;31.30;67.40
23291;DHT22;11814;44.686;10.842;2023-07-02T12:35:41;31.30;67.00
23291;DHT22;11814;44.686;10.842;2023-07-02T12:38:07;31.40;67.00
23291;DHT22;11814;44.686;10.842;2023-07-02T12:40:34;31.40;67.10
23291;DHT22;11814;44.686;10.842;2023-07-02T12:42:59;31.50;67.10
23291;DHT22;11814;44.686;10.842;2023-07-02T12:45:25;31.60;67.00
23291;DHT22;11814;44.686;10.842;2023-07-02T12:47:51;31.60;67.10
23291;DHT22;11814;44.686;10.842;2023-07-02T12:50:16;31.70;67.30
23291;DHT22;11814;44.686;10.842;2023-07-02T12:52:42;31.80;66.70
23291;DHT22;11814;44.686;10.842;2023-07-02T12:55:08;31.60;66.90
23291;DHT22;11814;44.686;10.842;2023-07-02T12:57:34;31.50;66.20
23291;DHT22;11814;44.686;10.842;2023-07-02T13:00:00;31.40;66.10
23291;DHT22;11814;44.686;10.842;2023-07-02T13:02:26;31.30;66.20
23291;DHT22;11814;44.686;10.842;2023-07-02T13:04:51;31.30;66.50
23291;DHT22;11814;44.686;10.842;2023-07-02T13:07:17;31.30;66.40
23291;DHT22;11814;44.686;10.842;2023-07-02T13:09:43;31.40;66.40
23291;DHT22;11814;44.686;10.842;2023-07-02T13:12:10;31.50;66.10
23291;DHT22;11814;44.686;10.842;2023-07-02T13:14:36;31.50;65.80
23291;DHT22;11814;44.686;10.842;2023-07-02T13:17:03;31.50;65.60
23291;DHT22;11814;44.686;10.842;2023-07-02T13:19:30;31.60;65.70
23291;DHT22;11814;44.686;10.842;2023-07-02T13:21:56;31.60;65.60
23291;DHT22;11814;44.686;10.842;2023-07-02T13:24:22;31.80;65.50
23291;DHT22;11814;44.686;10.842;2023-07-02T13:26:47;31.80;65.10
23291;DHT22;11814;44.686;10.842;2023-07-02T13:29:14;31.90;64.80
23291;DHT22;11814;44.686;10.842;2023-07-02T13:31:39;31.90;64.60
23291;DHT22;11814;44.686;10.842;2023-07-02T13:34:05;32.00;64.60
23291;DHT22;11814;44.686;10.842;2023-07-02T13:36:31;32.20;64.80
23291;DHT22;11814;44.686;10.842;2023-07-02T13:38:57;32.30;64.60
23291;DHT22;11814;44.686;10.842;2023-07-02T13:41:22;32.30;64.30
23291;DHT22;11814;44.686;10.842;2023-07-02T13:43:48;32.30;63.80
23291;DHT22;11814;44.686;10.842;2023-07-02T13:46:14;32.20;63.70
23291;DHT22;11814;44.686;10.842;2023-07-02T13:48:39;32.30;63.70
23291;DHT22;11814;44.686;10.842;2023-07-02T13:51:05;32.30;63.30
23291;DHT22;11814;44.686;10.842;2023-07-02T13:53:32;32.40;63.40
23291;DHT22;11814;44.686;10.842;2023-07-02T13:55:58;32.40;63.10
23291;DHT22;11814;44.686;10.842;2023-07-02T13:58:24;32.40;62.60
23291;DHT22;11814;44.686;10.842;2023-07-02T14:00:49;32.50;62.60
23291;DHT22;11814;44.686;10.842;2023-07-02T14:03:15;32.50;62.50
23291;DHT22;11814;44.686;10.842;2023-07-02T14:05:40;32.50;62.20
23291;DHT22;11814;44.686;10.842;2023-07-02T14:08:06;32.50;62.30
23291;DHT22;11814;44.686;10.842;2023-07-02T14:10:32;32.50;62.00
23291;DHT22;11814;44.686;10.842;2023-07-02T14:12:58;32.50;62.00
23291;DHT22;11814;44.686;10.842;2023-07-02T14:15:24;32.50;62.30
23291;DHT22;11814;44.686;10.842;2023-07-02T14:17:50;32.60;62.20
23291;DHT22;11814;44.686;10.842;2023-07-02T14:20:16;32.60;61.80
23291;DHT22;11814;44.686;10.842;2023-07-02T14:22:42;32.70;61.70
23291;DHT22;11814;44.686;10.842;2023-07-02T14:25:08;32.80;61.70
23291;DHT22;11814;44.686;10.842;2023-07-02T14:27:34;32.80;61.50
23291;DHT22;11814;44.686;10.842;2023-07-02T14:29:59;32.90;61.50
23291;DHT22;11814;44.686;10.842;2023-07-02T14:32:27;32.90;61.20
23291;DHT22;11814;44.686;10.842;2023-07-02T14:34:53;32.90;61.40
23291;DHT22;11814;44.686;10.842;2023-07-02T14:37:19;32.90;61.20
23291;DHT22;11814;44.686;10.842;2023-07-02T14:39:44;33.00;61.30
23291;DHT22;11814;44.686;10.842;2023-07-02T14:42:10;33.00;61.20
23291;DHT22;11814;44.686;10.842;2023-07-02T14:44:36;33.00;60.90
23291;DHT22;11814;44.686;10.842;2023-07-02T14:47:01;33.10;61.20
23291;DHT22;11814;44.686;10.842;2023-07-02T14:49:27;33.10;61.20
23291;DHT22;11814;44.686;10.842;2023-07-02T14:51:53;33.10;60.70
23291;DHT22;11814;44.686;10.842;2023-07-02T14:54:18;33.00;60.40
23291;DHT22;11814;44.686;10.842;2023-07-02T14:56:44;33.00;60.40
23291;DHT22;11814;44.686;10.842;2023-07-02T14:59:10;33.00;60.20
23291;DHT22;11814;44.686;10.842;2023-07-02T15:01:35;33.00;60.00
23291;DHT22;11814;44.686;10.842;2023-07-02T15:04:01;33.00;60.00
23291;DHT22;11814;44.686;10.842;2023-07-02T15:06:27;33.00;59.90
23291;DHT22;11814;44.686;10.842;2023-07-02T15:08:52;33.00;60.30
23291;DHT22;11814;44.686;10.842;2023-07-02T15:11:18;33.00;60.60
23291;DHT22;11814;44.686;10.842;2023-07-02T15:13:44;33.00;60.50